Time;durP1;ratioP1;P1;durP2;ratioP2;P2;SDS_P1;SDS_P2;PMS_P1;PMS_P2;Temp;Humidity;BMP_temperature;BMP_pressure;BME280_temperature;BME280_humidity;BME280_pressure;Samples;Min_cycle;Max_cycle;Signal;HPM_P1;HPM_P2
2021/05/15 00:01:42;;;;;;;4.40;3.70;;;11.70;99.90;;;;;;4980028;28;20847;-86
2021/05/15 00:04:08;;;;;;;7.60;4.70;;;11.70;99.90;;;;;;4983137;28;20440;-86
2021/05/15 00:06:34;;;;;;;6.87;4.50;;;11.60;99.90;;;;;;4983781;28;20430;-86
2021/05/15 00:09:04;;;;;;;8.20;4.30;;;11.60;99.90;;;;;;4967382;28;20432;-87
2021/05/15 00:11:30;;;;;;;3.90;3.50;;;11.60;99.90;;;;;;4984065;28;20428;-87
2021/05/15 00:13:59;;;;;;;4.07;3.50;;;11.60;99.90;;;;;;4967531;28;20436;-87
2021/05/15 00:16:24;;;;;;;4.37;2.60;;;11.50;99.90;;;;;;4983692;28;20486;-87
2021/05/15 00:18:50;;;;;;;7.03;2.73;;;11.60;99.90;;;;;;4981536;28;20449;-87
2021/05/15 00:21:16;;;;;;;2.73;2.50;;;11.50;99.90;;;;;;4983027;28;20816;-86
2021/05/15 00:23:42;;;;;;;6.33;3.17;;;11.40;99.90;;;;;;4983499;28;20472;-86
2021/05/15 00:26:12;;;;;;;2.80;2.60;;;11.40;99.90;;;;;;4983598;28;20434;-87
2021/05/15 00:28:38;;;;;;;2.00;1.90;;;11.40;99.90;;;;;;4983337;28;20432;-86
2021/05/15 00:31:04;;;;;;;5.00;2.47;;;11.30;99.90;;;;;;4982394;28;20552;-87
2021/05/15 00:33:36;;;;;;;3.03;2.73;;;11.30;99.90;;;;;;4983677;28;20488;-86
2021/05/15 00:36:03;;;;;;;2.87;2.60;;;11.20;99.90;;;;;;4983379;28;20484;-87
2021/05/15 00:38:32;;;;;;;4.00;2.97;;;11.20;99.90;;;;;;4983785;28;20433;-86
2021/05/15 00:41:00;;;;;;;3.63;3.20;;;11.20;99.90;;;;;;4983063;28;20460;-87
2021/05/15 00:43:28;;;;;;;4.70;2.77;;;11.10;99.90;;;;;;4998900;28;20784;-86
2021/05/15 00:45:54;;;;;;;2.80;2.60;;;11.10;99.90;;;;;;4966737;28;20721;-87
2021/05/15 00:48:21;;;;;;;3.50;2.83;;;11.00;99.90;;;;;;4983427;28;20423;-87
2021/05/15 00:50:47;;;;;;;3.33;3.00;;;11.10;99.90;;;;;;4982872;28;20472;-86
2021/05/15 00:53:13;;;;;;;3.67;3.00;;;11.00;99.90;;;;;;4982841;28;20438;-86
2021/05/15 00:55:39;;;;;;;4.73;2.67;;;11.00;99.90;;;;;;4973805;28;20436;-87
2021/05/15 00:58:05;;;;;;;3.00;2.70;;;11.00;99.90;;;;;;4998919;28;20509;-86
2021/05/15 01:00:36;;;;;;;3.87;3.47;;;11.00;99.90;;;;;;4969268;28;20440;-87
2021/05/15 01:03:05;;;;;;;4.20;3.80;;;11.00;99.90;;;;;;4966914;28;20432;-87
2021/05/15 01:05:31;;;;;;;3.00;2.73;;;10.90;99.90;;;;;;4982647;28;20555;-87
2021/05/15 01:07:57;;;;;;;3.47;2.97;;;10.90;99.90;;;;;;4966758;28;20470;-87
2021/05/15 01:10:23;;;;;;;4.30;3.30;;;10.90;99.90;;;;;;4966502;28;20464;-87
2021/05/15 01:12:56;;;;;;;4.00;3.20;;;10.90;99.90;;;;;;4982321;28;20449;-86
2021/05/15 01:15:24;;;;;;;4.67;3.33;;;10.90;99.90;;;;;;4966557;28;20444;-87
2021/05/15 01:17:55;;;;;;;3.43;3.13;;;10.90;99.90;;;;;;4982554;28;20433;-87
2021/05/15 01:20:23;;;;;;;4.83;3.60;;;10.80;99.90;;;;;;4982454;28;20517;-86
2021/05/15 01:22:50;;;;;;;3.60;3.30;;;10.80;99.90;;;;;;4967474;28;20448;-86
2021/05/15 01:25:19;;;;;;;4.13;3.40;;;10.80;99.90;;;;;;4966944;28;20432;-87
2021/05/15 01:27:45;;;;;;;3.93;3.63;;;10.80;99.90;;;;;;4981878;28;20483;-87
2021/05/15 01:30:12;;;;;;;5.27;3.37;;;10.80;99.90;;;;;;4962830;28;20477;-88
2021/05/15 01:32:41;;;;;;;4.50;3.83;;;10.80;99.90;;;;;;4981688;28;20469;-87
2021/05/15 01:35:09;;;;;;;4.47;3.70;;;10.80;99.90;;;;;;4981851;28;20491;-86
2021/05/15 01:37:37;;;;;;;5.03;3.93;;;10.70;99.90;;;;;;4981866;28;20437;-87
2021/05/15 01:40:06;;;;;;;3.80;3.50;;;10.70;99.90;;;;;;4965731;28;20538;-86
2021/05/15 01:42:34;;;;;;;4.27;3.53;;;10.70;99.90;;;;;;4985573;28;20443;-85
2021/05/15 01:45:01;;;;;;;5.00;3.60;;;10.70;99.90;;;;;;4965831;28;20820;-87
2021/05/15 01:47:28;;;;;;;4.30;3.57;;;10.70;99.90;;;;;;4998411;28;20472;-87
2021/05/15 01:49:59;;;;;;;4.40;4.00;;;10.70;99.90;;;;;;4981556;28;20468;-87
2021/05/15 01:52:25;;;;;;;4.27;3.83;;;10.70;99.90;;;;;;4965948;28;20444;-87
2021/05/15 01:54:51;;;;;;;4.57;3.27;;;10.60;99.90;;;;;;4981750;28;20436;-87
2021/05/15 01:57:19;;;;;;;5.50;3.57;;;10.60;99.90;;;;;;4981387;28;20437;-87
2021/05/15 01:59:48;;;;;;;5.40;3.63;;;10.70;99.90;;;;;;4984618;28;20432;-87
2021/05/15 02:02:16;;;;;;;4.60;4.20;;;10.70;99.90;;;;;;4981521;28;20466;-87
2021/05/15 02:04:42;;;;;;;5.00;4.10;;;10.70;99.90;;;;;;4981619;28;20440;-86
2021/05/15 02:07:08;;;;;;;7.97;3.67;;;10.70;99.90;;;;;;4981449;28;20436;-86
2021/05/15 02:09:34;;;;;;;4.63;3.70;;;10.70;99.90;;;;;;4981486;28;20468;-87
2021/05/15 02:12:02;;;;;;;3.70;3.20;;;10.70;99.90;;;;;;4981728;28;20727;-87
2021/05/15 02:14:31;;;;;;;3.97;3.57;;;10.70;99.90;;;;;;4981851;28;20444;-88
2021/05/15 02:16:57;;;;;;;4.50;3.83;;;10.80;99.90;;;;;;4981572;28;20428;-87
2021/05/15 02:19:25;;;;;;;4.00;3.60;;;10.80;99.90;;;;;;4980438;28;20440;-87
2021/05/15 02:21:51;;;;;;;4.90;3.27;;;10.80;99.90;;;;;;4981221;28;20436;-86
2021/05/15 02:24:17;;;;;;;4.93;3.90;;;10.90;99.90;;;;;;4981605;28;20420;-87
2021/05/15 02:26:43;;;;;;;4.80;4.30;;;10.90;99.90;;;;;;4980569;28;20431;-87
2021/05/15 02:29:09;;;;;;;4.80;4.37;;;10.90;99.90;;;;;;4997423;28;20451;-87
2021/05/15 02:31:37;;;;;;;5.10;4.37;;;11.00;99.90;;;;;;4980925;28;20527;-87
2021/05/15 02:34:07;;;;;;;4.80;4.23;;;11.10;99.90;;;;;;4980955;28;20432;-87
2021/05/15 02:36:33;;;;;;;5.40;4.63;;;11.10;99.90;;;;;;4965499;28;20908;-87
2021/05/15 02:39:01;;;;;;;4.50;4.10;;;11.10;99.90;;;;;;5013907;28;20511;-87
2021/05/15 02:41:31;;;;;;;5.97;5.10;;;11.10;99.90;;;;;;4981040;28;20438;-87
2021/05/15 02:43:57;;;;;;;5.07;4.60;;;11.20;99.90;;;;;;4981093;28;20430;-87
2021/05/15 02:46:23;;;;;;;6.40;4.87;;;11.30;99.90;;;;;;4980239;28;20436;-87
2021/05/15 02:48:54;;;;;;;6.90;4.53;;;11.30;99.90;;;;;;4962361;28;20465;-87
2021/05/15 02:51:20;;;;;;;5.67;4.77;;;11.40;99.90;;;;;;4976018;28;20470;-87
2021/05/15 02:53:50;;;;;;;5.70;4.83;;;11.40;99.90;;;;;;4980782;28;20830;-87
2021/05/15 02:56:16;;;;;;;5.00;4.50;;;11.40;99.90;;;;;;4966565;28;20472;-87
2021/05/15 02:58:44;;;;;;;5.60;5.10;;;11.50;99.90;;;;;;4980131;28;20531;-87
2021/05/15 03:01:10;;;;;;;7.03;5.13;;;11.40;99.90;;;;;;4970813;28;20876;-87
2021/05/15 03:03:36;;;;;;;6.57;5.80;;;11.40;99.90;;;;;;4971765;28;20443;-85
2021/05/15 03:06:05;;;;;;;6.97;6.27;;;11.40;99.90;;;;;;4981350;28;20436;-86
2021/05/15 03:08:31;;;;;;;7.83;5.50;;;11.50;99.90;;;;;;4975830;28;20437;-85
2021/05/15 03:10:59;;;;;;;6.40;5.80;;;11.50;99.90;;;;;;4973742;28;20474;-87
2021/05/15 03:13:28;;;;;;;8.47;5.83;;;11.60;99.90;;;;;;4964455;28;20439;-87
2021/05/15 03:15:56;;;;;;;6.50;5.80;;;11.60;99.90;;;;;;4960848;28;20459;-87
2021/05/15 03:18:34;;;;;;;6.57;5.97;;;11.60;99.90;;;;;;4965399;28;20501;-87
2021/05/15 03:21:06;;;;;;;8.20;5.60;;;11.60;99.90;;;;;;4963853;28;20899;-89
2021/05/15 03:23:32;;;;;;;7.47;6.00;;;11.60;99.90;;;;;;4981168;28;20449;-89
2021/05/15 03:26:01;;;;;;;9.37;5.83;;;11.60;99.90;;;;;;4965066;28;20506;-87
2021/05/15 03:28:27;;;;;;;6.23;5.50;;;11.60;99.90;;;;;;4996938;28;20437;-88
2021/05/15 03:30:57;;;;;;;7.97;5.73;;;11.60;99.90;;;;;;4980305;28;20959;-89
2021/05/15 03:33:23;;;;;;;6.83;6.10;;;11.70;99.90;;;;;;4962028;28;20486;-89
2021/05/15 03:35:49;;;;;;;6.93;5.57;;;11.70;99.90;;;;;;4980826;28;20529;-89
2021/05/15 03:38:18;;;;;;;6.73;5.83;;;11.70;99.90;;;;;;4963471;28;20438;-88
2021/05/15 03:40:47;;;;;;;6.90;5.93;;;11.80;99.90;;;;;;4984561;28;20426;-89
2021/05/15 03:43:18;;;;;;;6.60;6.00;;;11.90;99.90;;;;;;4984815;28;20440;-88
2021/05/15 03:45:44;;;;;;;6.43;5.83;;;11.90;99.90;;;;;;4966232;28;20540;-88
2021/05/15 03:48:19;;;;;;;6.93;5.77;;;11.80;99.90;;;;;;4984467;28;20545;-88
2021/05/15 03:50:55;;;;;;;6.47;5.87;;;11.80;99.90;;;;;;4983703;28;20471;-87
2021/05/15 03:53:21;;;;;;;7.80;5.53;;;11.90;99.90;;;;;;4984200;28;20473;-87
2021/05/15 03:55:48;;;;;;;7.23;5.20;;;11.90;99.90;;;;;;4984145;28;20496;-87
2021/05/15 03:58:17;;;;;;;7.00;5.90;;;11.90;99.90;;;;;;5017175;28;20422;-87
2021/05/15 04:00:43;;;;;;;5.77;4.60;;;11.90;99.90;;;;;;4984673;28;20573;-89
2021/05/15 04:03:12;;;;;;;6.30;5.53;;;12.00;99.90;;;;;;4968426;28;20530;-89
2021/05/15 04:05:41;;;;;;;6.50;5.43;;;12.00;99.90;;;;;;4984047;28;21016;-89
2021/05/15 04:08:07;;;;;;;8.17;5.53;;;12.00;99.90;;;;;;4984501;28;20500;-90
2021/05/15 04:10:33;;;;;;;6.60;5.37;;;12.00;99.90;;;;;;4984539;28;20482;-88
2021/05/15 04:13:06;;;;;;;6.90;5.60;;;12.00;99.90;;;;;;4968177;28;20420;-88
2021/05/15 04:15:42;;;;;;;5.43;4.93;;;12.00;99.90;;;;;;4981359;28;20518;-88
2021/05/15 04:18:13;;;;;;;7.60;5.60;;;12.00;99.90;;;;;;4983397;28;20439;-88
2021/05/15 04:20:45;;;;;;;7.90;5.27;;;12.00;99.90;;;;;;4993475;28;20776;-89
2021/05/15 04:23:12;;;;;;;6.17;5.33;;;12.10;99.90;;;;;;4983914;28;20477;-88
2021/05/15 04:25:41;;;;;;;6.83;4.90;;;12.00;99.90;;;;;;4968457;28;20473;-89
2021/05/15 04:28:07;;;;;;;6.07;4.90;;;12.10;99.90;;;;;;4999850;28;20429;-89
2021/05/15 04:30:34;;;;;;;6.47;4.80;;;12.10;99.90;;;;;;4983388;28;20962;-87
2021/05/15 04:33:01;;;;;;;5.77;3.87;;;12.10;99.90;;;;;;4999303;28;20447;-88
2021/05/15 04:35:27;;;;;;;4.97;4.47;;;12.10;99.90;;;;;;4983098;28;20887;-88
2021/05/15 04:37:54;;;;;;;4.40;4.00;;;12.20;99.90;;;;;;4983501;28;20528;-86
2021/05/15 04:40:20;;;;;;;7.10;3.80;;;12.20;99.90;;;;;;4983262;28;20508;-88
2021/05/15 04:42:48;;;;;;;3.73;3.33;;;12.20;99.90;;;;;;4983346;28;20926;-87
2021/05/15 04:45:17;;;;;;;4.00;3.50;;;12.20;99.90;;;;;;4982381;28;20927;-87
2021/05/15 04:47:45;;;;;;;4.80;3.43;;;12.30;99.90;;;;;;4979957;28;20532;-88
2021/05/15 04:50:15;;;;;;;5.57;3.87;;;12.30;99.90;;;;;;4982752;28;20847;-89
2021/05/15 04:52:41;;;;;;;4.00;3.40;;;12.30;99.90;;;;;;4982964;28;20437;-88
2021/05/15 04:55:09;;;;;;;4.30;3.40;;;12.30;99.90;;;;;;4982918;28;20497;-86
2021/05/15 04:57:40;;;;;;;3.60;3.30;;;12.30;99.90;;;;;;4966609;28;20921;-88
2021/05/15 05:00:07;;;;;;;4.73;3.50;;;12.30;99.90;;;;;;4966957;28;20440;-86
2021/05/15 05:02:35;;;;;;;8.03;3.20;;;12.30;99.90;;;;;;4982927;28;20434;-87
2021/05/15 05:05:01;;;;;;;3.90;3.60;;;12.40;99.90;;;;;;4982765;28;20452;-88
2021/05/15 05:07:27;;;;;;;4.30;3.90;;;12.40;99.90;;;;;;4982320;28;20482;-87
2021/05/15 05:09:53;;;;;;;5.20;3.50;;;12.40;99.90;;;;;;4982325;28;20943;-87
2021/05/15 05:12:19;;;;;;;3.90;3.40;;;12.40;99.90;;;;;;4982832;28;20432;-86
2021/05/15 05:14:47;;;;;;;4.33;3.50;;;12.30;99.90;;;;;;4981591;28;20769;-87
2021/05/15 05:17:13;;;;;;;3.80;3.37;;;12.30;99.90;;;;;;4981484;28;20437;-86
2021/05/15 05:19:41;;;;;;;3.37;3.00;;;12.30;99.90;;;;;;4971900;28;20469;-87
2021/05/15 05:22:07;;;;;;;4.40;3.90;;;12.30;99.90;;;;;;4971090;28;20806;-86
2021/05/15 05:24:36;;;;;;;4.87;4.00;;;12.40;99.90;;;;;;4966974;28;20460;-86
2021/05/15 05:27:02;;;;;;;5.50;3.80;;;12.40;99.90;;;;;;4981398;28;20430;-87
2021/05/15 05:29:30;;;;;;;4.63;3.97;;;12.40;99.90;;;;;;4964120;28;20469;-86
2021/05/15 05:31:57;;;;;;;5.00;3.80;;;12.30;99.90;;;;;;4965726;28;20481;-86
2021/05/15 05:34:23;;;;;;;7.00;4.40;;;12.40;99.90;;;;;;4954046;28;20432;-86
2021/05/15 05:36:49;;;;;;;4.70;4.20;;;12.40;99.90;;;;;;4979125;28;20438;-86
2021/05/15 05:39:17;;;;;;;5.27;4.77;;;12.30;99.90;;;;;;4978715;28;20433;-86
2021/05/15 05:41:47;;;;;;;5.10;4.27;;;12.40;99.90;;;;;;4979136;28;20454;-87
2021/05/15 05:44:14;;;;;;;6.60;4.60;;;12.40;99.90;;;;;;4979053;28;20428;-87
2021/05/15 05:46:43;;;;;;;5.80;5.20;;;12.40;99.90;;;;;;4962315;28;20440;-87
2021/05/15 05:49:11;;;;;;;5.07;4.30;;;12.40;99.90;;;;;;4962521;28;20932;-87
2021/05/15 05:51:37;;;;;;;4.93;4.30;;;12.40;99.90;;;;;;4994668;28;20488;-87
2021/05/15 05:54:03;;;;;;;7.23;6.07;;;12.50;99.90;;;;;;5011185;28;20425;-86
2021/05/15 05:56:31;;;;;;;7.07;6.33;;;12.50;99.90;;;;;;4978199;28;20897;-87
2021/05/15 05:58:59;;;;;;;11.23;7.10;;;12.60;99.90;;;;;;4978085;28;20817;-87
2021/05/15 06:01:25;;;;;;;8.87;7.40;;;12.50;99.90;;;;;;4961674;28;20440;-87
2021/05/15 06:03:53;;;;;;;8.57;6.23;;;12.40;99.90;;;;;;4994524;28;20436;-87
2021/05/15 06:06:22;;;;;;;6.87;6.03;;;12.40;99.90;;;;;;4962614;28;20917;-87
2021/05/15 06:08:48;;;;;;;7.17;6.07;;;12.50;99.90;;;;;;4978557;28;20531;-87
2021/05/15 06:11:21;;;;;;;8.83;6.20;;;12.50;99.90;;;;;;4978304;28;20467;-86
2021/05/15 06:13:47;;;;;;;9.73;6.93;;;12.50;99.90;;;;;;4978448;28;20473;-87
2021/05/15 06:16:21;;;;;;;8.23;6.50;;;12.50;99.90;;;;;;4963762;28;20451;-87
2021/05/15 06:18:47;;;;;;;9.60;6.77;;;12.60;99.90;;;;;;4973834;28;20442;-89
2021/05/15 06:21:13;;;;;;;10.80;6.77;;;12.60;99.90;;;;;;4961963;28;20430;-87
2021/05/15 06:23:39;;;;;;;7.63;6.03;;;12.60;99.90;;;;;;4962481;28;20455;-87
2021/05/15 06:26:09;;;;;;;10.30;6.43;;;12.60;99.90;;;;;;4961492;28;20989;-87
2021/05/15 06:28:41;;;;;;;8.63;6.80;;;12.60;99.90;;;;;;4961844;28;20436;-86
2021/05/15 06:31:07;;;;;;;11.23;7.23;;;12.60;99.90;;;;;;4963971;28;20506;-88
2021/05/15 06:33:37;;;;;;;15.00;7.67;;;12.70;99.90;;;;;;4977973;28;20930;-87
2021/05/15 06:36:04;;;;;;;9.50;7.83;;;12.70;99.90;;;;;;4978026;28;20436;-87
2021/05/15 06:38:34;;;;;;;11.33;8.80;;;12.70;99.90;;;;;;4978415;28;20515;-87
2021/05/15 06:41:03;;;;;;;15.60;10.17;;;12.70;99.90;;;;;;4961834;28;20443;-87
2021/05/15 06:43:29;;;;;;;13.47;8.87;;;12.80;99.90;;;;;;4977697;28;20539;-87
2021/05/15 06:45:55;;;;;;;12.67;8.87;;;12.80;99.90;;;;;;4974034;28;20532;-88
2021/05/15 06:48:21;;;;;;;10.37;8.30;;;12.70;99.90;;;;;;4974475;28;20430;-87
2021/05/15 06:50:47;;;;;;;12.20;8.97;;;12.70;99.90;;;;;;4969233;28;20514;-87
2021/05/15 06:53:15;;;;;;;17.27;10.70;;;12.70;99.90;;;;;;4978041;28;20421;-86
2021/05/15 06:55:41;;;;;;;11.17;8.27;;;12.80;99.90;;;;;;4993765;28;20827;-88
2021/05/15 06:58:09;;;;;;;11.70;9.00;;;12.80;99.90;;;;;;4977515;28;20422;-87
2021/05/15 07:00:35;;;;;;;10.83;8.90;;;12.90;99.90;;;;;;4977743;28;21010;-87
2021/05/15 07:03:01;;;;;;;11.50;8.03;;;13.00;99.90;;;;;;4977405;28;20767;-87
2021/05/15 07:05:27;;;;;;;13.53;7.87;;;13.10;99.90;;;;;;4977808;28;20439;-87
2021/05/15 07:07:53;;;;;;;8.87;7.93;;;13.10;99.90;;;;;;4977682;28;20908;-88
2021/05/15 07:10:22;;;;;;;8.90;7.00;;;13.10;99.90;;;;;;4977330;28;20473;-87
2021/05/15 07:12:48;;;;;;;11.40;8.53;;;13.20;99.90;;;;;;4982527;28;20432;-88
2021/05/15 07:15:17;;;;;;;9.73;7.60;;;13.20;99.90;;;;;;4984207;28;20891;-86
2021/05/15 07:17:43;;;;;;;7.10;6.37;;;13.20;99.90;;;;;;4984434;28;20894;-89
2021/05/15 07:20:13;;;;;;;9.57;7.40;;;13.30;99.90;;;;;;4985371;28;20945;-93
2021/05/15 07:22:42;;;;;;;10.10;8.10;;;13.40;99.90;;;;;;4976248;28;20499;-90
2021/05/15 07:25:11;;;;;;;12.40;7.60;;;13.30;99.90;;;;;;4974814;28;20518;-89
2021/05/15 07:27:37;;;;;;;10.13;8.60;;;13.20;99.90;;;;;;4984557;28;20427;-89
2021/05/15 07:30:08;;;;;;;8.60;7.60;;;13.00;99.90;;;;;;5000611;28;20468;-90
2021/05/15 07:32:34;;;;;;;8.57;7.00;;;13.00;99.90;;;;;;5000554;28;20543;-89
2021/05/15 07:35:02;;;;;;;10.30;8.17;;;12.90;99.90;;;;;;4957171;28;20473;-87
2021/05/15 07:37:31;;;;;;;9.03;8.07;;;12.80;99.90;;;;;;5001561;28;20915;-91
2021/05/15 07:39:59;;;;;;;8.60;7.50;;;12.90;99.90;;;;;;4984889;28;20754;-91
2021/05/15 07:42:25;;;;;;;8.80;7.90;;;13.00;99.90;;;;;;5001725;28;20430;-89
2021/05/15 07:44:59;;;;;;;7.33;6.57;;;12.90;99.90;;;;;;4985033;28;20440;-89
2021/05/15 07:47:30;;;;;;;12.30;8.30;;;12.90;99.90;;;;;;4969500;28;20434;-90
2021/05/15 07:49:59;;;;;;;10.77;7.23;;;13.00;99.90;;;;;;4965030;28;20895;-90
2021/05/15 07:52:28;;;;;;;9.30;7.47;;;13.00;99.90;;;;;;4968057;28;20898;-90
2021/05/15 07:54:56;;;;;;;8.23;7.33;;;13.10;99.90;;;;;;4984848;28;20514;-88
2021/05/15 07:57:25;;;;;;;8.07;7.07;;;13.00;99.90;;;;;;4984514;28;20942;-88
2021/05/15 07:59:54;;;;;;;7.80;6.63;;;13.10;99.90;;;;;;4968738;28;20935;-89
2021/05/15 08:02:27;;;;;;;6.80;5.87;;;13.20;99.90;;;;;;4968042;28;20459;-90
2021/05/15 08:04:58;;;;;;;6.40;5.80;;;13.30;99.90;;;;;;4968515;28;20438;-90
2021/05/15 08:07:31;;;;;;;6.97;6.27;;;13.40;99.90;;;;;;5000843;28;20439;-90
2021/05/15 08:09:57;;;;;;;6.80;6.10;;;13.40;99.90;;;;;;4967799;28;20456;-86
2021/05/15 08:12:23;;;;;;;7.10;6.03;;;13.50;99.90;;;;;;5000657;28;20426;-86
2021/05/15 08:14:49;;;;;;;6.60;5.87;;;13.50;99.90;;;;;;4967587;28;20463;-87
2021/05/15 08:17:17;;;;;;;9.93;6.43;;;13.70;99.90;;;;;;4983614;28;20478;-87
2021/05/15 08:19:43;;;;;;;7.37;6.53;;;13.80;99.90;;;;;;4964376;28;20688;-88
2021/05/15 08:22:11;;;;;;;6.90;6.20;;;14.00;99.90;;;;;;4999345;28;20554;-89
2021/05/15 08:24:37;;;;;;;7.87;7.07;;;14.10;99.90;;;;;;4979488;28;20456;-87
2021/05/15 08:27:06;;;;;;;6.90;6.20;;;14.20;99.90;;;;;;4996292;28;20433;-88
2021/05/15 08:29:34;;;;;;;7.63;6.83;;;14.40;99.90;;;;;;4997551;28;20439;-91
2021/05/15 08:32:01;;;;;;;9.03;7.40;;;14.40;99.90;;;;;;4997111;28;20464;-89
2021/05/15 08:34:29;;;;;;;8.20;7.40;;;14.40;99.90;;;;;;4981148;28;20427;-90
2021/05/15 08:36:57;;;;;;;8.30;7.40;;;14.60;99.90;;;;;;4997381;28;20441;-84
2021/05/15 08:39:26;;;;;;;9.63;7.43;;;14.70;99.90;;;;;;4980210;28;20435;-88
2021/05/15 08:41:51;;;;;;;9.77;6.90;;;14.70;99.90;;;;;;4979924;28;20458;-89
2021/05/15 08:44:23;;;;;;;7.27;6.53;;;14.70;99.90;;;;;;4964588;28;20429;-89
2021/05/15 08:46:51;;;;;;;8.60;7.77;;;14.80;99.90;;;;;;4981215;28;20471;-90
2021/05/15 08:49:21;;;;;;;8.63;6.90;;;14.90;99.90;;;;;;4980040;28;20432;-92
2021/05/15 08:51:49;;;;;;;7.17;6.17;;;14.90;99.90;;;;;;4996895;28;20450;-91
2021/05/15 08:54:22;;;;;;;8.97;7.40;;;15.10;99.90;;;;;;4996664;28;20468;-89
2021/05/15 08:56:50;;;;;;;6.80;6.20;;;15.30;99.90;;;;;;4996935;28;20428;-90
2021/05/15 08:59:16;;;;;;;6.60;5.93;;;15.50;99.90;;;;;;4997422;28;20436;-88
2021/05/15 09:01:44;;;;;;;7.27;6.33;;;15.30;99.90;;;;;;4995752;28;20744;-88
2021/05/15 09:04:10;;;;;;;6.10;5.50;;;15.40;99.90;;;;;;4980444;28;20433;-88
2021/05/15 09:06:42;;;;;;;6.90;6.20;;;15.30;99.90;;;;;;4980842;28;20436;-88
2021/05/15 09:09:09;;;;;;;6.97;6.27;;;15.30;99.90;;;;;;4980423;28;20539;-90
2021/05/15 09:11:35;;;;;;;7.20;6.50;;;15.20;99.90;;;;;;4996333;28;20940;-89
2021/05/15 09:14:05;;;;;;;7.30;6.60;;;15.10;99.90;;;;;;4980291;28;20459;-88
2021/05/15 09:16:31;;;;;;;7.20;6.47;;;15.00;99.90;;;;;;4980016;28;20417;-90
2021/05/15 09:19:07;;;;;;;7.63;6.90;;;15.10;99.90;;;;;;4996090;28;20495;-87
2021/05/15 09:21:36;;;;;;;7.80;7.00;;;15.10;99.90;;;;;;4979331;28;21049;-90
2021/05/15 09:24:06;;;;;;;8.40;7.60;;;15.00;99.90;;;;;;4996011;28;20434;-86
2021/05/15 09:26:37;;;;;;;6.43;5.83;;;14.90;99.90;;;;;;4963979;28;20826;-88
2021/05/15 09:29:05;;;;;;;9.00;8.00;;;15.00;99.90;;;;;;4980047;28;20743;-91
2021/05/15 09:31:38;;;;;;;7.93;6.60;;;15.50;99.90;;;;;;4979543;28;20515;-87
2021/05/15 09:34:08;;;;;;;8.33;7.53;;;15.90;99.90;;;;;;4996381;28;20422;-88
2021/05/15 09:36:39;;;;;;;10.00;8.10;;;16.10;99.90;;;;;;4978076;28;20448;-88
2021/05/15 09:39:15;;;;;;;8.53;7.60;;;16.10;99.90;;;;;;4979171;28;20411;-88
2021/05/15 09:41:45;;;;;;;9.90;7.27;;;16.00;99.90;;;;;;4964507;28;20444;-87
2021/05/15 09:44:16;;;;;;;7.47;6.87;;;16.00;99.90;;;;;;4981092;28;20429;-89
2021/05/15 09:46:46;;;;;;;7.30;6.60;;;15.90;99.90;;;;;;4962771;28;20431;-88
2021/05/15 09:49:17;;;;;;;6.70;6.10;;;16.10;99.90;;;;;;4979032;28;20494;-87
2021/05/15 09:51:52;;;;;;;7.67;6.97;;;16.40;99.90;;;;;;4978719;28;20453;-87
2021/05/15 09:54:25;;;;;;;6.77;6.10;;;16.60;98.10;;;;;;4963448;28;20455;-88
2021/05/15 09:56:59;;;;;;;5.40;4.93;;;16.80;98.10;;;;;;4979033;28;20819;-89
2021/05/15 09:59:32;;;;;;;7.20;6.60;;;16.90;95.80;;;;;;4963238;28;20431;-88
2021/05/15 10:02:09;;;;;;;5.90;5.30;;;17.00;95.60;;;;;;4963729;28;21041;-90
2021/05/15 10:04:35;;;;;;;6.10;5.20;;;17.20;95.80;;;;;;4979075;28;20437;-90
2021/05/15 10:07:02;;;;;;;9.93;5.63;;;17.30;96.40;;;;;;4996473;28;20458;-90
2021/05/15 10:09:36;;;;;;;6.00;5.40;;;17.30;93.80;;;;;;4979220;28;20512;-87
2021/05/15 10:12:05;;;;;;;5.73;5.23;;;17.10;95.40;;;;;;4962951;28;20453;-87
2021/05/15 10:14:32;;;;;;;6.87;6.27;;;17.10;94.90;;;;;;4994183;28;21061;-87
2021/05/15 10:16:59;;;;;;;6.17;5.67;;;16.90;95.90;;;;;;4962527;28;20501;-87
2021/05/15 10:19:25;;;;;;;5.90;5.40;;;17.00;96.60;;;;;;4978656;28;20458;-90
2021/05/15 10:21:52;;;;;;;6.73;6.00;;;17.20;97.30;;;;;;4961006;28;20519;-87
2021/05/15 10:24:18;;;;;;;6.70;6.20;;;17.20;94.90;;;;;;4959387;28;20521;-90
2021/05/15 10:26:47;;;;;;;23.53;5.90;;;17.10;94.30;;;;;;4995082;28;20553;-88
2021/05/15 10:29:13;;;;;;;5.53;4.50;;;16.80;95.20;;;;;;4994349;28;20431;-88
2021/05/15 10:31:46;;;;;;;5.80;5.30;;;16.90;96.20;;;;;;4968248;28;20492;-88
2021/05/15 10:34:15;;;;;;;5.83;5.33;;;17.00;95.10;;;;;;4978322;28;20432;-87
2021/05/15 10:36:47;;;;;;;6.07;5.47;;;17.10;95.30;;;;;;4961772;28;20438;-87
2021/05/15 10:39:25;;;;;;;6.90;5.87;;;17.20;96.60;;;;;;4995133;28;20425;-87
2021/05/15 10:41:51;;;;;;;7.00;5.20;;;16.90;95.10;;;;;;4978077;28;20429;-83
2021/05/15 10:44:20;;;;;;;5.60;5.10;;;16.60;95.90;;;;;;4978563;28;20439;-86
2021/05/15 10:46:48;;;;;;;4.50;4.17;;;16.10;97.60;;;;;;4978168;28;20442;-89
2021/05/15 10:49:26;;;;;;;5.30;4.80;;;15.10;99.90;;;;;;5011202;28;20420;-93
2021/05/15 10:52:06;;;;;;;4.73;4.33;;;14.30;99.90;;;;;;4989764;28;20448;-92
2021/05/15 10:55:01;;;;;;;3.67;3.07;;;13.40;99.90;;;;;;4991864;28;20421;-93
2021/05/15 10:57:30;;;;;;;6.00;2.50;;;12.50;99.90;;;;;;4992168;28;20414;-94
2021/05/15 11:00:04;;;;;;;5.33;2.80;;;12.00;99.90;;;;;;4976609;28;20875;-92
2021/05/15 11:02:32;;;;;;;7.37;3.33;;;11.70;99.90;;;;;;4976440;28;20537;-90
2021/05/15 11:05:09;;;;;;;4.77;3.20;;;11.50;99.90;;;;;;4976876;28;20482;-91
2021/05/15 11:07:38;;;;;;;5.90;3.30;;;11.50;99.90;;;;;;4992082;28;20455;-89
2021/05/15 11:10:09;;;;;;;5.63;4.07;;;11.40;99.90;;;;;;4991663;28;20611;-89
2021/05/15 11:12:53;;;;;;;5.43;3.40;;;11.50;99.90;;;;;;4993603;28;20900;-87
2021/05/15 11:15:22;;;;;;;4.20;3.40;;;11.70;99.90;;;;;;4994012;28;20500;-87
2021/05/15 11:18:05;;;;;;;3.40;3.10;;;12.00;99.90;;;;;;4993257;28;20404;-89
2021/05/15 11:20:48;;;;;;;3.43;3.13;;;12.30;99.90;;;;;;4994994;28;20444;-90
2021/05/15 11:23:21;;;;;;;7.23;3.47;;;12.60;99.90;;;;;;4993514;28;20777;-89
2021/05/15 11:25:54;;;;;;;5.97;3.90;;;12.90;99.90;;;;;;4995201;28;20466;-88
2021/05/15 11:28:24;;;;;;;5.63;4.87;;;13.10;99.90;;;;;;4978503;28;20438;-89
2021/05/15 11:30:53;;;;;;;6.80;5.00;;;13.50;99.90;;;;;;4979100;28;20489;-90
2021/05/15 11:33:26;;;;;;;7.80;4.03;;;13.70;99.90;;;;;;5009902;28;20425;-90
2021/05/15 11:36:01;;;;;;;6.00;3.50;;;14.10;99.90;;;;;;4962243;28;20405;-86
2021/05/15 11:38:36;;;;;;;3.50;3.20;;;14.30;99.90;;;;;;4977845;28;20538;-87
2021/05/15 11:41:04;;;;;;;3.60;3.30;;;14.30;99.90;;;;;;4994647;28;20419;-88
2021/05/15 11:43:32;;;;;;;4.00;3.60;;;14.40;99.90;;;;;;4989537;28;20750;-84
2021/05/15 11:46:02;;;;;;;4.57;4.17;;;14.70;99.90;;;;;;4995574;28;20455;-86
2021/05/15 11:48:34;;;;;;;6.37;4.90;;;14.80;99.90;;;;;;4996978;28;20436;-88
2021/05/15 11:51:08;;;;;;;8.67;4.50;;;15.10;99.90;;;;;;4978100;28;20469;-88
2021/05/15 11:53:39;;;;;;;6.57;4.20;;;15.30;99.90;;;;;;4994457;28;20773;-90
2021/05/15 11:56:20;;;;;;;5.20;3.80;;;15.60;99.90;;;;;;4978287;28;20774;-91
2021/05/15 11:59:01;;;;;;;5.03;4.57;;;15.70;99.90;;;;;;4979007;28;20414;-89
2021/05/15 12:01:34;;;;;;;4.97;4.50;;;15.60;99.90;;;;;;4988018;28;20475;-89
2021/05/15 12:04:14;;;;;;;7.37;4.17;;;15.40;99.90;;;;;;4981471;28;20414;-89
2021/05/15 12:06:43;;;;;;;7.30;5.10;;;15.40;99.90;;;;;;4982717;28;20421;-90
2021/05/15 12:09:17;;;;;;;5.20;4.37;;;15.50;99.90;;;;;;4965794;28;20435;-90
2021/05/15 12:11:47;;;;;;;5.73;4.63;;;15.70;99.90;;;;;;4965454;28;20518;-90
2021/05/15 12:14:16;;;;;;;4.97;4.37;;;15.80;99.90;;;;;;4965570;28;20819;-89
2021/05/15 12:16:42;;;;;;;5.47;4.47;;;15.90;99.90;;;;;;4984243;28;20443;-89
2021/05/15 12:19:20;;;;;;;6.53;5.23;;;16.00;99.90;;;;;;4985714;28;20459;-91
2021/05/15 12:21:57;;;;;;;5.03;4.53;;;16.10;99.90;;;;;;4987277;28;20508;-89
2021/05/15 12:24:44;;;;;;;6.33;4.97;;;16.40;99.90;;;;;;4983730;28;20430;-89
2021/05/15 12:27:18;;;;;;;6.57;6.00;;;16.60;99.90;;;;;;4983639;28;20441;-88
2021/05/15 12:29:45;;;;;;;7.60;5.43;;;16.90;99.90;;;;;;4967409;28;20567;-91
2021/05/15 12:32:23;;;;;;;7.40;5.23;;;17.00;99.90;;;;;;4967822;28;20466;-92
2021/05/15 12:34:58;;;;;;;5.87;4.93;;;17.20;99.90;;;;;;4967930;28;20427;-90
2021/05/15 12:37:37;;;;;;;5.00;4.50;;;17.50;99.90;;;;;;4984423;28;20518;-93
2021/05/15 12:40:11;;;;;;;5.50;5.00;;;17.70;99.90;;;;;;4984982;28;20432;-91
2021/05/15 12:42:39;;;;;;;6.03;5.00;;;17.90;99.90;;;;;;4966646;28;20838;-89
2021/05/15 12:45:14;;;;;;;5.60;5.10;;;18.30;99.90;;;;;;4998349;28;20821;-91
2021/05/15 12:47:40;;;;;;;6.57;4.93;;;18.60;99.90;;;;;;4960487;28;20450;-87
2021/05/15 12:50:28;;;;;;;5.00;4.50;;;18.50;99.90;;;;;;5011238;28;20479;-89
2021/05/15 12:53:11;;;;;;;4.70;4.40;;;18.40;99.90;;;;;;4953343;28;20456;-89
2021/05/15 12:55:51;;;;;;;5.10;4.70;;;18.20;99.90;;;;;;4970023;28;20497;-90